Impacts TAF Board
For situational awareness. Not to be used for flight planning purposes.
IDs:

KCVG - Cincinnati Intl, KY, US

Issued at 2343 UTC 04 Jul 2022
Updated at 0120 UTC 05 Jul 2022
Potential Impact None Slight Moderate High
Time0052Z 05/02Z 05/03Z 05/04Z 05/05Z 05/06Z 05/07Z 05/08Z 05/09Z 05/10Z 05/11Z 05/12Z 05/13Z 05/14Z>>
Type OBS PRVL PRVL PRVL PRVL PRVL PRVL PRVL PRVL PRVL PRVL PRVL PRVL PRVL
VIS 10 >6 >6 >6 >6 >6 >6 >6 >6 >6 >6 >6 >6 >6
CIG 300 -- 200 200 200 200 200 200 200 100 100 100 100 100
Cover BKN SCT BKN BKN BKN BKN BKN BKN BKN BKN BKN BKN BKN BKN
FltCat VFR VFR VFR VFR VFR VFR VFR VFR VFR VFR VFR VFR VFR VFR
WX -- -- -- -- -- -- -- -- -- -- -- -- -- --
WDir 190 190 190 190 190 190 190 190 190 210 210 210 210 210
WSpd 3 6 4 4 4 4 4 4 4 4 4 4 4 4
WGst -- -- -- -- -- -- -- -- -- -- -- -- -- --
WSHgt -- -- -- -- -- -- -- -- -- -- -- -- -- --
WSDir -- -- -- -- -- -- -- -- -- -- -- -- -- --
WSSpd -- -- -- -- -- -- -- -- -- -- -- -- -- --
Raw TAF
KCVG 042343Z 0500/0606 19006KT P6SM SCT250
  FM050300 19004KT P6SM FEW060 BKN200
  FM051000 21004KT P6SM BKN100
  FM051800 26009KT P6SM SCT045
  FM060200 23004KT P6SM BKN150


Raw METAR
KCVG 050052Z 19003KT 10SM FEW250 BKN300 28/20 A3006 RMK AO2 SLP167 T02830200 $
KCVG 042352Z 24003KT 10SM FEW070 FEW250 BKN300 31/19 A3006 RMK AO2 SLP168 T03110194 10328 20306 56002 $
KCVG 042252Z 22004KT 10SM FEW065 BKN300 32/19 A3006 RMK AO2 SLP168 T03170189 $

METAR Board
Radar Display
Forecast Discussion
For situational awareness. Not to be used for flight planning purposes.